< < Back
Terminal Aerodrome Forecast


Current Version              Previous Versions:   1  2  3  4  5  6  7  8  9  

Terminal Aerodrome Forecast

594
FTUS42 KFFC 270750 AAA
TAFMCN
TAF AMD
KMCN 270750Z 2708/2806 VRB03KT 6SM BR FEW070 SCT250
      TEMPO 2709/2713 4SM BR
     FM271500 15005KT P6SM SCT035
     FM271800 21005KT P6SM SCT050 PROB30 2720/2724 5SM -TSRA
      BKN035CB=

Latest METAR

946
SAUS80 KWBC 271600 RRB
MTRMCN
METAR KMCN 271553Z 22007KT 10SM CLR 32/21 A3009 RMK AO2 SLP185
T03170206


USA.gov is the U.S. government's official web portal to all federal, state and local government web resources and services.